Time;durP1;ratioP1;P1;durP2;ratioP2;P2;SDS_P1;SDS_P2;PMS_P1;PMS_P2;Temp;Humidity;BMP_temperature;BMP_pressure;BME280_temperature;BME280_humidity;BME280_pressure;Samples;Min_cycle;Max_cycle;Signal;HPM_P1;HPM_P2
2021/04/08 00:03:46;;;;;;;9.33;1.70;;;;;;;;;;10287173;28;20018;-65
2021/04/08 00:08:43;;;;;;;1.40;0.57;;;;;;;;;;10271165;28;20029;-64
2021/04/08 00:13:41;;;;;;;14.23;1.13;;;;;;;;;;10278647;28;20026;-65
2021/04/08 00:18:38;;;;;;;9.33;1.50;;;;;;;;;;10291664;28;20238;-64
2021/04/08 00:23:35;;;;;;;8.20;1.17;;;;;;;;;;10283126;28;20033;-64
2021/04/08 00:28:33;;;;;;;8.80;1.50;;;;;;;;;;10282010;28;20047;-65
2021/04/08 00:33:30;;;;;;;6.17;1.23;;;;;;;;;;10303905;28;20048;-65
2021/04/08 00:38:27;;;;;;;7.77;1.60;;;;;;;;;;10265210;28;20045;-66
2021/04/08 00:43:25;;;;;;;4.60;1.20;;;;;;;;;;10288577;28;20056;-65
2021/04/08 00:48:22;;;;;;;13.97;1.67;;;;;;;;;;10276866;28;20580;-65
2021/04/08 00:53:21;;;;;;;7.40;1.05;;;;;;;;;;10273143;28;20030;-65
2021/04/08 00:58:20;;;;;;;6.82;1.35;;;;;;;;;;10278535;28;20356;-65
2021/04/08 01:03:20;;;;;;;8.35;1.33;;;;;;;;;;10277053;28;20044;-65
2021/04/08 01:08:18;;;;;;;9.23;1.15;;;;;;;;;;10295930;28;20681;-65
2021/04/08 01:13:17;;;;;;;1.90;0.63;;;;;;;;;;10285595;28;20132;-64
2021/04/08 01:18:24;;;;;;;6.38;1.30;;;;;;;;;;10291113;28;20276;-64
2021/04/08 01:23:21;;;;;;;3.03;0.93;;;;;;;;;;10284272;28;20447;-66
2021/04/08 01:28:31;;;;;;;6.93;0.60;;;;;;;;;;10266359;28;20347;-64
2021/04/08 01:33:31;;;;;;;5.25;1.55;;;;;;;;;;10290128;28;20026;-65
2021/04/08 01:38:32;;;;;;;12.57;1.10;;;;;;;;;;10288570;28;20060;-65
2021/04/08 01:43:36;;;;;;;2.22;0.50;;;;;;;;;;10241108;28;20048;-65
2021/04/08 01:48:34;;;;;;;2.40;0.88;;;;;;;;;;10255961;28;20045;-65
2021/04/08 01:53:33;;;;;;;1.30;0.70;;;;;;;;;;10304535;28;20044;-66
2021/04/08 01:58:31;;;;;;;1.55;0.60;;;;;;;;;;10301041;28;20108;-65
2021/04/08 02:03:30;;;;;;;0.93;0.60;;;;;;;;;;10269968;28;20313;-65
2021/04/08 02:08:28;;;;;;;1.13;0.77;;;;;;;;;;10270876;28;20033;-64
2021/04/08 02:13:26;;;;;;;12.80;1.30;;;;;;;;;;10277542;28;20030;-66
2021/04/08 02:18:24;;;;;;;3.17;0.88;;;;;;;;;;10346164;28;20033;-65
2021/04/08 02:23:23;;;;;;;4.03;0.55;;;;;;;;;;10314888;28;20029;-65
2021/04/08 02:28:21;;;;;;;1.25;0.50;;;;;;;;;;10340404;28;20029;-65
2021/04/08 02:33:21;;;;;;;0.20;0.20;;;;;;;;;;10328538;28;20025;-65
2021/04/08 02:38:20;;;;;;;0.30;0.30;;;;;;;;;;10324891;28;20452;-65
2021/04/08 02:43:18;;;;;;;2.20;0.73;;;;;;;;;;10309843;28;20056;-65
2021/04/08 02:48:17;;;;;;;4.47;1.27;;;;;;;;;;10331057;28;20043;-65
2021/04/08 02:53:14;;;;;;;;;;;;;;;;;;10297818;28;20095;-65
2021/04/08 02:58:14;;;;;;;4.93;1.30;;;;;;;;;;10334089;28;19919;-65
2021/04/08 03:03:11;;;;;;;2.88;0.68;;;;;;;;;;10343771;28;20076;-66
2021/04/08 03:08:10;;;;;;;7.43;1.70;;;;;;;;;;10333840;28;20076;-65
2021/04/08 03:13:10;;;;;;;1.55;0.88;;;;;;;;;;10274115;28;20025;-65
2021/04/08 03:18:09;;;;;;;5.22;0.95;;;;;;;;;;10297366;28;20136;-65
2021/04/08 03:23:11;;;;;;;0.80;0.55;;;;;;;;;;10303318;28;20037;-64
2021/04/08 03:28:12;;;;;;;4.80;0.98;;;;;;;;;;10326028;28;20422;-65
2021/04/08 03:33:09;;;;;;;3.42;0.45;;;;;;;;;;10350389;28;20041;-66
2021/04/08 03:38:07;;;;;;;3.20;0.77;;;;;;;;;;10336366;28;20613;-64
2021/04/08 03:43:05;;;;;;;3.10;0.97;;;;;;;;;;10323043;28;20033;-65
2021/04/08 03:48:03;;;;;;;1.05;0.50;;;;;;;;;;10334160;28;20044;-65
2021/04/08 03:53:02;;;;;;;2.13;1.70;;;;;;;;;;10317390;28;20116;-64
2021/04/08 03:58:02;;;;;;;7.65;1.25;;;;;;;;;;10320855;28;20037;-65
2021/04/08 04:02:59;;;;;;;6.82;1.02;;;;;;;;;;10342482;28;20036;-65
2021/04/08 04:07:57;;;;;;;8.03;1.50;;;;;;;;;;10283269;28;20033;-66
2021/04/08 04:12:56;;;;;;;5.47;1.30;;;;;;;;;;10286552;28;20179;-65
2021/04/08 04:17:53;;;;;;;6.20;0.85;;;;;;;;;;10289535;28;20041;-65
2021/04/08 04:22:51;;;;;;;9.80;2.07;;;;;;;;;;10289208;28;20044;-65
2021/04/08 04:27:48;;;;;;;4.13;1.40;;;;;;;;;;10324624;28;20041;-65
2021/04/08 04:32:46;;;;;;;2.10;1.07;;;;;;;;;;10306246;28;20044;-65
2021/04/08 04:37:43;;;;;;;3.07;1.17;;;;;;;;;;10281360;28;20044;-62
2021/04/08 04:42:41;;;;;;;2.50;0.43;;;;;;;;;;10250118;28;20064;-62
2021/04/08 04:47:40;;;;;;;2.33;1.00;;;;;;;;;;10312333;28;20127;-62
2021/04/08 04:52:38;;;;;;;7.20;2.20;;;;;;;;;;10337729;28;20044;-62
2021/04/08 04:57:35;;;;;;;3.27;1.43;;;;;;;;;;10330991;28;20036;-62
2021/04/08 05:02:33;;;;;;;4.93;1.43;;;;;;;;;;10347849;28;20049;-62
2021/04/08 05:07:30;;;;;;;10.30;1.53;;;;;;;;;;10321964;28;20409;-61
2021/04/08 05:12:28;;;;;;;4.07;1.10;;;;;;;;;;10301717;28;20031;-62
2021/04/08 05:17:25;;;;;;;4.23;1.07;;;;;;;;;;10320464;28;20087;-63
2021/04/08 05:22:23;;;;;;;0.50;0.50;;;;;;;;;;10345121;28;20188;-62
2021/04/08 05:27:20;;;;;;;5.87;1.33;;;;;;;;;;10309551;28;20398;-62
2021/04/08 05:32:18;;;;;;;3.60;1.00;;;;;;;;;;10317591;28;20119;-62
2021/04/08 05:37:15;;;;;;;5.80;1.10;;;;;;;;;;10296694;28;20044;-61
2021/04/08 05:42:12;;;;;;;4.57;1.70;;;;;;;;;;10332901;28;20036;-62
2021/04/08 05:47:10;;;;;;;2.63;0.70;;;;;;;;;;10314089;28;20033;-63
2021/04/08 05:52:07;;;;;;;1.97;0.90;;;;;;;;;;10312205;28;20116;-63
2021/04/08 05:57:05;;;;;;;9.57;1.90;;;;;;;;;;10329682;28;20041;-64
2021/04/08 06:02:02;;;;;;;3.57;1.47;;;;;;;;;;10329721;28;20052;-66
2021/04/08 06:07:00;;;;;;;5.67;1.23;;;;;;;;;;10322172;28;20525;-62
2021/04/08 06:11:57;;;;;;;2.73;0.93;;;;;;;;;;10309720;28;20326;-62
2021/04/08 06:16:55;;;;;;;2.00;0.50;;;;;;;;;;10326731;28;20040;-63
2021/04/08 06:21:53;;;;;;;5.80;1.53;;;;;;;;;;10329216;28;20095;-62
2021/04/08 06:26:51;;;;;;;5.93;1.83;;;;;;;;;;10331137;28;20029;-62
2021/04/08 06:31:49;;;;;;;4.37;1.20;;;;;;;;;;10326623;28;20033;-63
2021/04/08 06:36:46;;;;;;;1.95;0.75;;;;;;;;;;10296201;28;20102;-64
2021/04/08 06:41:44;;;;;;;2.07;1.33;;;;;;;;;;10328994;28;20499;-62
2021/04/08 06:46:43;;;;;;;3.23;1.03;;;;;;;;;;10314008;28;20420;-63
2021/04/08 06:51:42;;;;;;;8.02;1.05;;;;;;;;;;10342167;28;20055;-63
2021/04/08 06:56:40;;;;;;;1.67;0.70;;;;;;;;;;10306972;28;20070;-65
2021/04/08 07:01:37;;;;;;;2.75;0.75;;;;;;;;;;10347958;28;20402;-64
2021/04/08 07:06:35;;;;;;;0.37;0.37;;;;;;;;;;10318924;28;20033;-61
2021/04/08 07:11:34;;;;;;;2.60;0.60;;;;;;;;;;10316122;28;20040;-64
2021/04/08 07:16:32;;;;;;;9.93;1.30;;;;;;;;;;10322848;28;20037;-64
2021/04/08 07:21:30;;;;;;;0.40;0.40;;;;;;;;;;10327459;28;20044;-62
2021/04/08 07:26:28;;;;;;;3.58;0.93;;;;;;;;;;10331856;28;20643;-65
2021/04/08 07:31:26;;;;;;;3.33;0.93;;;;;;;;;;10323307;28;20029;-63
2021/04/08 07:36:28;;;;;;;1.65;0.73;;;;;;;;;;10319531;28;20123;-62
2021/04/08 07:41:26;;;;;;;5.63;1.05;;;;;;;;;;10323414;28;20115;-62
2021/04/08 07:46:39;;;;;;;9.95;1.60;;;;;;;;;;10305113;28;20053;-65
2021/04/08 07:51:36;;;;;;;3.30;1.10;;;;;;;;;;10317208;28;20040;-67
2021/04/08 07:56:34;;;;;;;2.17;0.85;;;;;;;;;;10289362;28;20094;-62
2021/04/08 08:01:32;;;;;;;4.17;0.93;;;;;;;;;;10328801;28;20082;-65
2021/04/08 08:06:35;;;;;;;3.50;0.63;;;;;;;;;;10332017;28;20033;-62
2021/04/08 08:11:39;;;;;;;3.72;0.60;;;;;;;;;;10345418;28;20827;-63
2021/04/08 08:16:37;;;;;;;6.63;0.80;;;;;;;;;;10313363;28;20178;-63
2021/04/08 08:21:38;;;;;;;2.15;0.85;;;;;;;;;;10342517;28;20066;-64
2021/04/08 08:26:39;;;;;;;0.63;0.40;;;;;;;;;;10307967;28;20029;-63
2021/04/08 08:31:37;;;;;;;2.95;0.80;;;;;;;;;;10330569;28;20035;-65
2021/04/08 08:36:35;;;;;;;2.43;0.50;;;;;;;;;;10336760;28;20037;-61
2021/04/08 08:41:34;;;;;;;;;;;;;;;;;;10333518;28;20514;-62
2021/04/08 08:46:33;;;;;;;0.93;0.47;;;;;;;;;;10357513;28;20416;-62
2021/04/08 08:51:35;;;;;;;2.25;0.80;;;;;;;;;;10334085;28;20124;-62
2021/04/08 08:56:35;;;;;;;6.15;1.05;;;;;;;;;;10313109;28;20141;-62
2021/04/08 09:01:35;;;;;;;0.77;0.70;;;;;;;;;;10334804;28;20664;-62
2021/04/08 09:06:34;;;;;;;2.88;0.40;;;;;;;;;;10321744;28;20033;-62
2021/04/08 09:11:34;;;;;;;2.75;0.43;;;;;;;;;;10339084;28;20071;-63
2021/04/08 09:16:41;;;;;;;3.33;0.82;;;;;;;;;;10345281;28;20033;-62
2021/04/08 09:21:46;;;;;;;0.57;0.57;;;;;;;;;;10339525;28;20455;-62
2021/04/08 09:26:45;;;;;;;6.20;0.85;;;;;;;;;;10317366;28;20037;-61
2021/04/08 09:31:42;;;;;;;4.82;0.80;;;;;;;;;;10327783;28;20180;-64
2021/04/08 09:36:40;;;;;;;5.73;2.23;;;;;;;;;;10312535;28;20047;-61
2021/04/08 09:41:38;;;;;;;;;;;;;;;;;;10315339;28;20036;-62
2021/04/08 09:46:40;;;;;;;1.00;0.28;;;;;;;;;;10343061;28;19927;-63
2021/04/08 09:51:38;;;;;;;3.83;1.23;;;;;;;;;;10317046;28;20044;-62
2021/04/08 09:56:39;;;;;;;0.68;0.47;;;;;;;;;;10320873;28;20119;-63
2021/04/08 10:01:36;;;;;;;1.58;0.45;;;;;;;;;;10330686;28;20443;-63
2021/04/08 10:06:34;;;;;;;1.83;0.40;;;;;;;;;;10318187;28;20048;-61
2021/04/08 10:11:31;;;;;;;0.33;0.23;;;;;;;;;;10319602;28;20125;-62
2021/04/08 10:16:29;;;;;;;0.60;0.43;;;;;;;;;;10323801;28;20032;-61
2021/04/08 10:21:26;;;;;;;1.13;0.47;;;;;;;;;;10313039;28;20037;-63
2021/04/08 10:26:31;;;;;;;0.73;0.37;;;;;;;;;;10299217;28;20033;-62
2021/04/08 10:31:33;;;;;;;0.30;0.30;;;;;;;;;;10314573;28;20410;-62
2021/04/08 10:36:53;;;;;;;2.20;0.68;;;;;;;;;;10330291;28;20520;-62
2021/04/08 10:41:56;;;;;;;1.48;0.50;;;;;;;;;;10344358;28;20043;-62
2021/04/08 10:46:55;;;;;;;2.90;0.50;;;;;;;;;;10332114;28;20042;-63
2021/04/08 10:51:53;;;;;;;2.13;0.80;;;;;;;;;;10311964;28;20495;-60
2021/04/08 10:56:50;;;;;;;1.70;0.45;;;;;;;;;;10323519;28;20194;-63
2021/04/08 11:01:48;;;;;;;1.20;0.57;;;;;;;;;;10331461;28;20182;-62
2021/04/08 11:06:46;;;;;;;2.08;0.70;;;;;;;;;;10326631;28;20537;-62
2021/04/08 11:11:44;;;;;;;2.55;0.40;;;;;;;;;;10328078;28;20033;-64
2021/04/08 11:16:41;;;;;;;1.87;0.30;;;;;;;;;;10315551;28;20033;-62
2021/04/08 11:21:39;;;;;;;3.13;1.00;;;;;;;;;;10278112;28;20171;-63
2021/04/08 11:26:50;;;;;;;0.93;0.60;;;;;;;;;;10263344;28;20618;-67
2021/04/08 11:32:16;;;;;;;3.55;1.20;;;;;;;;;;10259559;28;20220;-66
2021/04/08 11:37:15;;;;;;;18.50;5.13;;;;;;;;;;10269424;28;20582;-63
2021/04/08 11:42:20;;;;;;;56.28;14.63;;;;;;;;;;10322118;28;20029;-62
2021/04/08 11:47:18;;;;;;;35.25;10.13;;;;;;;;;;10303253;28;20418;-64
2021/04/08 11:52:16;;;;;;;48.30;13.73;;;;;;;;;;10322083;28;20124;-63
2021/04/08 11:57:14;;;;;;;37.65;9.73;;;;;;;;;;10294371;28;20117;-63
2021/04/08 12:02:12;;;;;;;28.23;7.73;;;;;;;;;;10310993;28;20114;-62
2021/04/08 12:07:10;;;;;;;22.63;6.27;;;;;;;;;;10327953;28;20036;-61
2021/04/08 12:12:08;;;;;;;14.73;4.15;;;;;;;;;;10308550;28;20082;-62
2021/04/08 12:17:09;;;;;;;13.65;4.18;;;;;;;;;;10310304;28;20872;-62
2021/04/08 12:22:08;;;;;;;8.32;2.45;;;;;;;;;;10315556;28;20056;-60
2021/04/08 12:27:19;;;;;;;6.28;2.90;;;;;;;;;;10334450;28;20523;-62
2021/04/08 12:32:25;;;;;;;7.85;2.80;;;;;;;;;;10330175;28;20029;-62
2021/04/08 12:37:25;;;;;;;7.60;5.85;;;;;;;;;;10299057;28;20501;-62
2021/04/08 12:42:22;;;;;;;5.18;2.97;;;;;;;;;;10327740;28;20066;-63
2021/04/08 12:47:20;;;;;;;9.07;2.70;;;;;;;;;;10344493;28;20037;-69
2021/04/08 12:52:18;;;;;;;8.57;2.80;;;;;;;;;;10340850;28;20029;-62
2021/04/08 12:57:15;;;;;;;14.60;3.13;;;;;;;;;;10315389;28;20041;-62
2021/04/08 13:02:12;;;;;;;31.90;18.90;;;;;;;;;;10340209;28;20515;-64
2021/04/08 13:07:10;;;;;;;30.23;18.70;;;;;;;;;;10320474;28;20497;-61
2021/04/08 13:12:07;;;;;;;24.30;15.97;;;;;;;;;;10299073;28;20409;-62
2021/04/08 13:17:05;;;;;;;18.87;10.53;;;;;;;;;;10296694;28;20174;-62
2021/04/08 13:22:02;;;;;;;17.93;9.00;;;;;;;;;;10328981;28;20029;-61
2021/04/08 13:27:01;;;;;;;13.87;6.73;;;;;;;;;;10298899;28;20098;-62
2021/04/08 13:31:58;;;;;;;14.07;6.25;;;;;;;;;;10320026;28;20035;-62
2021/04/08 13:36:55;;;;;;;8.73;4.83;;;;;;;;;;10316323;28;20045;-60
2021/04/08 13:41:53;;;;;;;5.77;3.50;;;;;;;;;;10329827;28;20382;-61
2021/04/08 13:46:50;;;;;;;6.37;3.60;;;;;;;;;;10338091;28;20351;-61
2021/04/08 13:51:48;;;;;;;5.90;3.40;;;;;;;;;;10329641;28;20037;-62
2021/04/08 13:56:45;;;;;;;4.90;3.00;;;;;;;;;;10335409;28;20035;-64
2021/04/08 14:01:43;;;;;;;4.63;2.40;;;;;;;;;;10327766;28;20021;-61
2021/04/08 14:06:40;;;;;;;5.17;2.33;;;;;;;;;;10325055;28;20037;-63
2021/04/08 14:11:38;;;;;;;7.80;2.13;;;;;;;;;;10311837;28;20512;-64
2021/04/08 14:16:35;;;;;;;5.53;3.53;;;;;;;;;;10309848;28;20042;-61
2021/04/08 14:21:36;;;;;;;3.93;1.70;;;;;;;;;;10324521;28;20060;-62
2021/04/08 14:26:34;;;;;;;3.53;2.95;;;;;;;;;;10327247;28;20489;-61
2021/04/08 14:31:31;;;;;;;2.93;1.97;;;;;;;;;;10334811;28;20032;-62
2021/04/08 14:36:28;;;;;;;3.30;2.17;;;;;;;;;;10332604;28;20124;-61
2021/04/08 14:41:26;;;;;;;2.23;1.80;;;;;;;;;;10335895;28;20075;-63
2021/04/08 14:46:23;;;;;;;4.43;1.77;;;;;;;;;;10314466;28;20422;-62
2021/04/08 14:51:21;;;;;;;4.80;2.33;;;;;;;;;;10322462;28;20124;-59
2021/04/08 14:56:18;;;;;;;3.63;1.63;;;;;;;;;;10327873;28;20398;-61
2021/04/08 15:01:15;;;;;;;4.43;2.67;;;;;;;;;;10321820;28;20044;-61
2021/04/08 15:06:13;;;;;;;2.97;1.80;;;;;;;;;;10324555;28;20555;-61
2021/04/08 15:11:11;;;;;;;3.67;1.40;;;;;;;;;;10329035;28;20481;-61
2021/04/08 15:16:09;;;;;;;;;;;;;;;;;;10330021;28;20037;-61
2021/04/08 15:21:07;;;;;;;2.67;1.87;;;;;;;;;;10317112;28;19917;-61
2021/04/08 15:26:04;;;;;;;2.87;2.53;;;;;;;;;;10325594;28;20661;-62
2021/04/08 15:31:02;;;;;;;2.57;1.23;;;;;;;;;;10324432;28;20029;-60
2021/04/08 15:36:00;;;;;;;8.40;4.00;;;;;;;;;;10323291;28;20148;-62
2021/04/08 15:40:58;;;;;;;;;;;;;;;;;;10315531;28;20044;-61
2021/04/08 15:45:55;;;;;;;2.58;2.10;;;;;;;;;;10349292;28;19920;-62
2021/04/08 15:50:52;;;;;;;6.50;4.47;;;;;;;;;;10321403;28;20028;-60
2021/04/08 15:55:50;;;;;;;3.83;3.30;;;;;;;;;;10324617;28;20033;-61
2021/04/08 16:00:47;;;;;;;3.70;3.27;;;;;;;;;;10330212;28;20096;-61
2021/04/08 16:05:45;;;;;;;6.13;3.60;;;;;;;;;;10331794;28;20040;-62
2021/04/08 16:10:42;;;;;;;4.47;3.47;;;;;;;;;;10320275;28;20098;-62
2021/04/08 16:15:40;;;;;;;4.27;3.20;;;;;;;;;;10331632;28;20026;-59
2021/04/08 16:20:37;;;;;;;6.80;5.23;;;;;;;;;;10330096;28;20045;-60
2021/04/08 16:25:35;;;;;;;3.87;3.43;;;;;;;;;;10320800;28;20337;-61
2021/04/08 16:30:32;;;;;;;8.83;3.40;;;;;;;;;;10322133;28;20505;-61
2021/04/08 16:35:30;;;;;;;4.50;3.63;;;;;;;;;;10345902;28;20114;-62
2021/04/08 16:40:27;;;;;;;5.70;4.00;;;;;;;;;;10336009;28;20028;-61
2021/04/08 16:45:25;;;;;;;8.27;6.60;;;;;;;;;;10339289;28;20040;-61
2021/04/08 16:50:22;;;;;;;7.13;4.33;;;;;;;;;;10342061;28;20021;-62
2021/04/08 16:55:20;;;;;;;7.60;5.93;;;;;;;;;;10331153;28;20594;-65
2021/04/08 17:00:18;;;;;;;5.97;4.63;;;;;;;;;;10330284;28;20128;-60
2021/04/08 17:05:15;;;;;;;7.63;4.93;;;;;;;;;;10334143;28;20033;-62
2021/04/08 17:10:13;;;;;;;11.87;6.07;;;;;;;;;;10313183;28;20037;-62
2021/04/08 17:15:11;;;;;;;4.13;3.37;;;;;;;;;;10352518;28;20037;-63
2021/04/08 17:20:10;;;;;;;4.17;2.90;;;;;;;;;;10318720;28;20495;-59
2021/04/08 17:25:08;;;;;;;16.42;7.20;;;;;;;;;;10327272;28;20048;-61
2021/04/08 17:30:05;;;;;;;10.37;5.77;;;;;;;;;;10336221;28;20043;-59
2021/04/08 17:35:04;;;;;;;10.07;5.67;;;;;;;;;;10326979;28;20056;-61
2021/04/08 17:40:05;;;;;;;11.25;6.65;;;;;;;;;;10339591;28;20114;-58
2021/04/08 17:45:03;;;;;;;9.00;5.03;;;;;;;;;;10328727;28;20126;-61
2021/04/08 17:50:02;;;;;;;6.30;5.07;;;;;;;;;;10334864;28;20041;-66
2021/04/08 17:54:59;;;;;;;;;;;;;;;;;;10291135;28;20397;-65
2021/04/08 17:59:58;;;;;;;10.37;5.20;;;;;;;;;;10305113;28;20365;-66
2021/04/08 18:04:55;;;;;;;7.97;4.47;;;;;;;;;;10314641;28;20133;-59
2021/04/08 18:09:53;;;;;;;7.07;3.77;;;;;;;;;;10292718;28;20052;-60
2021/04/08 18:14:50;;;;;;;8.33;3.67;;;;;;;;;;10325431;28;20059;-61
2021/04/08 18:19:48;;;;;;;11.03;4.20;;;;;;;;;;10295135;28;20037;-60
2021/04/08 18:24:45;;;;;;;7.43;4.73;;;;;;;;;;10284728;28;20377;-61
2021/04/08 18:29:44;;;;;;;5.13;3.27;;;;;;;;;;10283092;28;20087;-61
2021/04/08 18:34:42;;;;;;;5.70;3.10;;;;;;;;;;10312742;28;20063;-60
2021/04/08 18:39:39;;;;;;;9.77;4.90;;;;;;;;;;10320387;28;20588;-64
2021/04/08 18:44:39;;;;;;;6.37;4.07;;;;;;;;;;10325048;28;20037;-63
2021/04/08 18:49:37;;;;;;;5.95;3.85;;;;;;;;;;10311003;28;20498;-61
2021/04/08 18:54:34;;;;;;;6.77;5.00;;;;;;;;;;10329541;28;20114;-63
2021/04/08 18:59:32;;;;;;;11.90;8.47;;;;;;;;;;10306958;28;20406;-63
2021/04/08 19:04:29;;;;;;;11.03;6.87;;;;;;;;;;10302682;28;20029;-62
2021/04/08 19:09:27;;;;;;;3.80;3.47;;;;;;;;;;10325470;28;20087;-62
2021/04/08 19:14:24;;;;;;;11.87;6.40;;;;;;;;;;10309308;28;20037;-63
2021/04/08 19:19:21;;;;;;;5.67;5.03;;;;;;;;;;10310615;28;20116;-65
2021/04/08 19:24:19;;;;;;;4.67;3.17;;;;;;;;;;10331691;28;20044;-63
2021/04/08 19:29:16;;;;;;;6.40;4.07;;;;;;;;;;10327496;28;20025;-65
2021/04/08 19:34:14;;;;;;;7.03;4.63;;;;;;;;;;10299188;28;20033;-61
2021/04/08 19:39:13;;;;;;;6.30;3.87;;;;;;;;;;10325392;28;20025;-63
2021/04/08 19:44:10;;;;;;;8.50;5.13;;;;;;;;;;10329159;28;20178;-62
2021/04/08 19:49:08;;;;;;;5.70;3.60;;;;;;;;;;10324363;28;20165;-62
2021/04/08 19:54:06;;;;;;;5.80;4.10;;;;;;;;;;10304973;28;20032;-62
2021/04/08 19:59:07;;;;;;;10.45;4.60;;;;;;;;;;10329704;28;20082;-63
2021/04/08 20:04:04;;;;;;;5.88;3.85;;;;;;;;;;10320040;28;20128;-63
2021/04/08 20:09:03;;;;;;;4.33;3.30;;;;;;;;;;10300708;28;20569;-62
2021/04/08 20:14:01;;;;;;;5.80;3.47;;;;;;;;;;10308915;28;20229;-59
2021/04/08 20:18:58;;;;;;;4.20;3.27;;;;;;;;;;10287013;28;20557;-63
2021/04/08 20:23:56;;;;;;;8.53;3.97;;;;;;;;;;10331656;28;20043;-61
2021/04/08 20:28:53;;;;;;;5.60;3.73;;;;;;;;;;10329433;28;20068;-66
2021/04/08 20:33:50;;;;;;;9.30;3.73;;;;;;;;;;10302770;28;20037;-59
2021/04/08 20:38:48;;;;;;;6.23;3.83;;;;;;;;;;10317673;28;20087;-60
2021/04/08 20:43:46;;;;;;;7.47;5.20;;;;;;;;;;10343354;28;20075;-60
2021/04/08 20:48:43;;;;;;;9.17;4.67;;;;;;;;;;10331534;28;20397;-59
2021/04/08 20:53:41;;;;;;;6.93;3.90;;;;;;;;;;10333937;28;20569;-66
2021/04/08 20:58:38;;;;;;;7.37;4.63;;;;;;;;;;10332410;28;20602;-63
2021/04/08 21:03:36;;;;;;;6.03;4.50;;;;;;;;;;10335382;28;20095;-59
2021/04/08 21:08:33;;;;;;;9.30;5.73;;;;;;;;;;10343893;28;20402;-61
2021/04/08 21:13:31;;;;;;;9.03;5.53;;;;;;;;;;10327466;28;20393;-63
2021/04/08 21:18:28;;;;;;;10.33;5.80;;;;;;;;;;10328403;28;20029;-61
2021/04/08 21:23:25;;;;;;;8.10;5.60;;;;;;;;;;10301274;28;20059;-63
2021/04/08 21:28:23;;;;;;;11.13;6.77;;;;;;;;;;10318511;28;20032;-63
2021/04/08 21:33:20;;;;;;;9.93;6.20;;;;;;;;;;10332179;28;20040;-62
2021/04/08 21:38:18;;;;;;;9.37;6.40;;;;;;;;;;10308086;28;20828;-62
2021/04/08 21:43:15;;;;;;;10.63;6.47;;;;;;;;;;10327749;28;20029;-64
2021/04/08 21:48:13;;;;;;;11.13;6.40;;;;;;;;;;10348050;28;20037;-62
2021/04/08 21:53:10;;;;;;;12.53;7.40;;;;;;;;;;10331851;28;20064;-65
2021/04/08 21:58:08;;;;;;;11.60;7.73;;;;;;;;;;10320273;28;20028;-63
2021/04/08 22:03:08;;;;;;;11.67;5.97;;;;;;;;;;10322237;28;20041;-65
2021/04/08 22:08:06;;;;;;;11.65;8.30;;;;;;;;;;10332176;28;20055;-59
2021/04/08 22:13:05;;;;;;;15.43;9.18;;;;;;;;;;10303301;28;20040;-61
2021/04/08 22:18:04;;;;;;;13.20;7.53;;;;;;;;;;10330309;28;20053;-62
2021/04/08 22:23:10;;;;;;;14.10;8.35;;;;;;;;;;10345483;28;20037;-64
2021/04/08 22:28:08;;;;;;;14.60;8.13;;;;;;;;;;10335978;28;20040;-62
2021/04/08 22:33:09;;;;;;;21.73;9.70;;;;;;;;;;10334786;28;20036;-62
2021/04/08 22:38:07;;;;;;;14.57;7.78;;;;;;;;;;10330915;28;20040;-61
2021/04/08 22:43:05;;;;;;;21.30;10.13;;;;;;;;;;10331114;28;20107;-61
2021/04/08 22:48:03;;;;;;;15.33;8.63;;;;;;;;;;10331004;28;20517;-62
2021/04/08 22:53:00;;;;;;;15.47;8.33;;;;;;;;;;10337523;28;20567;-61
2021/04/08 22:58:00;;;;;;;18.33;10.23;;;;;;;;;;10315566;28;21066;-62
2021/04/08 23:02:57;;;;;;;16.00;8.32;;;;;;;;;;10318303;28;20049;-63
2021/04/08 23:07:55;;;;;;;16.63;9.87;;;;;;;;;;10323148;28;20259;-62
2021/04/08 23:12:53;;;;;;;16.03;8.10;;;;;;;;;;10334098;28;20041;-63
2021/04/08 23:17:50;;;;;;;13.13;7.30;;;;;;;;;;10347696;28;20037;-59
2021/04/08 23:22:48;;;;;;;16.93;8.07;;;;;;;;;;10345277;28;20713;-60
2021/04/08 23:27:45;;;;;;;13.23;7.60;;;;;;;;;;10328621;28;20064;-61
2021/04/08 23:32:43;;;;;;;10.13;7.57;;;;;;;;;;10332204;28;20043;-60
2021/04/08 23:37:40;;;;;;;16.90;8.47;;;;;;;;;;10325585;28;20844;-61
2021/04/08 23:42:38;;;;;;;11.60;7.83;;;;;;;;;;10347628;28;20515;-62
2021/04/08 23:47:36;;;;;;;9.17;6.53;;;;;;;;;;10321840;28;20473;-62
2021/04/08 23:52:34;;;;;;;12.05;8.25;;;;;;;;;;10327817;28;20040;-59
2021/04/08 23:57:32;;;;;;;16.93;9.47;;;;;;;;;;10316697;28;20044;-61
